sensor_id;sensor_type;location;lat;lon;timestamp;P1;durP1;ratioP1;P2;durP2;ratioP2
30307;SDS011;17114;52.314;8.910;2023-12-07T00:02:03;38.17;;;23.63;;
30307;SDS011;17114;52.314;8.910;2023-12-07T00:04:31;39.78;;;23.45;;
30307;SDS011;17114;52.314;8.910;2023-12-07T00:06:58;39.70;;;24.05;;
30307;SDS011;17114;52.314;8.910;2023-12-07T00:09:25;43.17;;;24.45;;
30307;SDS011;17114;52.314;8.910;2023-12-07T00:11:52;42.92;;;24.00;;
30307;SDS011;17114;52.314;8.910;2023-12-07T00:14:18;43.00;;;24.45;;
30307;SDS011;17114;52.314;8.910;2023-12-07T00:16:45;50.10;;;24.35;;
30307;SDS011;17114;52.314;8.910;2023-12-07T00:19:12;41.85;;;23.02;;
30307;SDS011;17114;52.314;8.910;2023-12-07T00:21:40;40.45;;;22.83;;
30307;SDS011;17114;52.314;8.910;2023-12-07T00:24:07;43.92;;;24.02;;
30307;SDS011;17114;52.314;8.910;2023-12-07T00:26:34;40.92;;;23.45;;
30307;SDS011;17114;52.314;8.910;2023-12-07T00:29:01;42.58;;;23.35;;
30307;SDS011;17114;52.314;8.910;2023-12-07T00:31:28;39.45;;;23.77;;
30307;SDS011;17114;52.314;8.910;2023-12-07T00:33:55;38.72;;;23.15;;
30307;SDS011;17114;52.314;8.910;2023-12-07T00:36:22;39.55;;;23.20;;
30307;SDS011;17114;52.314;8.910;2023-12-07T00:38:49;39.70;;;21.95;;
30307;SDS011;17114;52.314;8.910;2023-12-07T00:41:16;34.70;;;21.90;;
30307;SDS011;17114;52.314;8.910;2023-12-07T00:43:43;42.58;;;23.77;;
30307;SDS011;17114;52.314;8.910;2023-12-07T00:46:10;40.85;;;23.42;;
30307;SDS011;17114;52.314;8.910;2023-12-07T00:48:37;39.92;;;22.88;;
30307;SDS011;17114;52.314;8.910;2023-12-07T00:51:05;48.22;;;23.90;;
30307;SDS011;17114;52.314;8.910;2023-12-07T00:53:32;41.13;;;22.45;;
30307;SDS011;17114;52.314;8.910;2023-12-07T00:56:00;38.63;;;22.35;;
30307;SDS011;17114;52.314;8.910;2023-12-07T00:58:28;36.20;;;22.08;;
30307;SDS011;17114;52.314;8.910;2023-12-07T01:00:56;36.88;;;22.48;;
30307;SDS011;17114;52.314;8.910;2023-12-07T01:03:23;42.85;;;22.95;;
30307;SDS011;17114;52.314;8.910;2023-12-07T01:05:50;43.03;;;23.02;;
30307;SDS011;17114;52.314;8.910;2023-12-07T01:08:17;44.17;;;23.50;;
30307;SDS011;17114;52.314;8.910;2023-12-07T01:10:44;39.42;;;21.83;;
30307;SDS011;17114;52.314;8.910;2023-12-07T01:13:11;39.13;;;23.13;;
30307;SDS011;17114;52.314;8.910;2023-12-07T01:15:38;41.45;;;23.73;;
30307;SDS011;17114;52.314;8.910;2023-12-07T01:18:05;40.13;;;22.88;;
30307;SDS011;17114;52.314;8.910;2023-12-07T01:20:33;43.03;;;23.75;;
30307;SDS011;17114;52.314;8.910;2023-12-07T01:23:00;41.33;;;24.13;;
30307;SDS011;17114;52.314;8.910;2023-12-07T01:25:27;40.58;;;24.33;;
30307;SDS011;17114;52.314;8.910;2023-12-07T01:27:54;42.08;;;23.85;;
30307;SDS011;17114;52.314;8.910;2023-12-07T01:30:21;45.88;;;24.08;;
30307;SDS011;17114;52.314;8.910;2023-12-07T01:32:48;42.55;;;24.63;;
30307;SDS011;17114;52.314;8.910;2023-12-07T01:35:16;39.20;;;23.70;;
30307;SDS011;17114;52.314;8.910;2023-12-07T01:37:43;43.05;;;23.92;;
30307;SDS011;17114;52.314;8.910;2023-12-07T01:40:10;40.75;;;23.52;;
30307;SDS011;17114;52.314;8.910;2023-12-07T01:42:38;40.30;;;24.00;;
30307;SDS011;17114;52.314;8.910;2023-12-07T01:45:05;43.85;;;23.90;;
30307;SDS011;17114;52.314;8.910;2023-12-07T01:47:33;39.30;;;23.80;;
30307;SDS011;17114;52.314;8.910;2023-12-07T01:50:02;37.97;;;22.48;;
30307;SDS011;17114;52.314;8.910;2023-12-07T01:52:35;40.83;;;22.98;;
30307;SDS011;17114;52.314;8.910;2023-12-07T01:55:06;40.05;;;23.15;;
30307;SDS011;17114;52.314;8.910;2023-12-07T01:57:36;39.28;;;22.80;;
30307;SDS011;17114;52.314;8.910;2023-12-07T02:00:03;40.95;;;22.55;;
30307;SDS011;17114;52.314;8.910;2023-12-07T02:02:31;39.38;;;21.38;;
30307;SDS011;17114;52.314;8.910;2023-12-07T02:04:59;41.15;;;23.23;;
30307;SDS011;17114;52.314;8.910;2023-12-07T02:07:26;39.05;;;22.60;;
30307;SDS011;17114;52.314;8.910;2023-12-07T02:09:54;38.30;;;21.83;;
30307;SDS011;17114;52.314;8.910;2023-12-07T02:12:21;37.47;;;21.98;;
30307;SDS011;17114;52.314;8.910;2023-12-07T02:14:49;39.45;;;22.02;;
30307;SDS011;17114;52.314;8.910;2023-12-07T02:22:33;42.13;;;23.38;;
30307;SDS011;17114;52.314;8.910;2023-12-07T02:25:10;38.85;;;22.02;;
30307;SDS011;17114;52.314;8.910;2023-12-07T02:27:42;44.38;;;23.65;;
30307;SDS011;17114;52.314;8.910;2023-12-07T02:30:12;42.90;;;22.48;;
30307;SDS011;17114;52.314;8.910;2023-12-07T02:32:40;36.13;;;21.23;;
30307;SDS011;17114;52.314;8.910;2023-12-07T02:35:09;38.95;;;21.85;;
30307;SDS011;17114;52.314;8.910;2023-12-07T02:37:48;38.88;;;21.67;;
30307;SDS011;17114;52.314;8.910;2023-12-07T02:40:23;39.28;;;22.38;;
30307;SDS011;17114;52.314;8.910;2023-12-07T02:42:52;39.90;;;22.77;;
30307;SDS011;17114;52.314;8.910;2023-12-07T02:45:20;40.22;;;22.88;;
30307;SDS011;17114;52.314;8.910;2023-12-07T02:47:47;42.30;;;23.08;;
30307;SDS011;17114;52.314;8.910;2023-12-07T02:50:14;38.05;;;21.10;;
30307;SDS011;17114;52.314;8.910;2023-12-07T02:52:41;37.13;;;21.17;;
30307;SDS011;17114;52.314;8.910;2023-12-07T02:55:08;38.88;;;22.27;;
30307;SDS011;17114;52.314;8.910;2023-12-07T02:57:36;41.35;;;21.90;;
30307;SDS011;17114;52.314;8.910;2023-12-07T03:00:03;37.85;;;21.35;;
30307;SDS011;17114;52.314;8.910;2023-12-07T03:02:34;41.58;;;22.83;;
30307;SDS011;17114;52.314;8.910;2023-12-07T03:05:02;39.63;;;21.50;;
30307;SDS011;17114;52.314;8.910;2023-12-07T03:07:30;42.55;;;22.05;;
30307;SDS011;17114;52.314;8.910;2023-12-07T03:09:57;38.88;;;22.27;;
30307;SDS011;17114;52.314;8.910;2023-12-07T03:12:24;39.70;;;23.08;;
30307;SDS011;17114;52.314;8.910;2023-12-07T03:14:51;44.95;;;22.30;;
30307;SDS011;17114;52.314;8.910;2023-12-07T03:17:18;40.65;;;21.85;;
30307;SDS011;17114;52.314;8.910;2023-12-07T03:19:45;42.65;;;22.88;;
30307;SDS011;17114;52.314;8.910;2023-12-07T03:22:12;41.45;;;23.60;;
30307;SDS011;17114;52.314;8.910;2023-12-07T03:24:40;40.58;;;23.13;;
30307;SDS011;17114;52.314;8.910;2023-12-07T03:27:12;43.28;;;22.67;;
30307;SDS011;17114;52.314;8.910;2023-12-07T03:29:38;39.53;;;23.20;;
30307;SDS011;17114;52.314;8.910;2023-12-07T03:32:05;39.00;;;21.65;;
30307;SDS011;17114;52.314;8.910;2023-12-07T03:34:33;41.15;;;23.15;;
30307;SDS011;17114;52.314;8.910;2023-12-07T03:37:00;45.40;;;23.85;;
30307;SDS011;17114;52.314;8.910;2023-12-07T03:39:27;43.45;;;23.27;;
30307;SDS011;17114;52.314;8.910;2023-12-07T03:41:56;42.33;;;23.40;;
30307;SDS011;17114;52.314;8.910;2023-12-07T03:44:23;44.83;;;22.50;;
30307;SDS011;17114;52.314;8.910;2023-12-07T03:46:53;43.95;;;24.33;;
30307;SDS011;17114;52.314;8.910;2023-12-07T03:49:20;41.08;;;22.88;;
30307;SDS011;17114;52.314;8.910;2023-12-07T03:51:47;39.95;;;23.35;;
30307;SDS011;17114;52.314;8.910;2023-12-07T03:54:15;39.42;;;22.25;;
30307;SDS011;17114;52.314;8.910;2023-12-07T03:56:42;41.15;;;22.80;;
30307;SDS011;17114;52.314;8.910;2023-12-07T03:59:08;43.08;;;22.27;;
30307;SDS011;17114;52.314;8.910;2023-12-07T04:01:36;47.67;;;23.70;;
30307;SDS011;17114;52.314;8.910;2023-12-07T04:04:03;46.13;;;24.92;;
30307;SDS011;17114;52.314;8.910;2023-12-07T04:06:31;41.90;;;24.27;;
30307;SDS011;17114;52.314;8.910;2023-12-07T04:08:58;38.72;;;22.60;;
30307;SDS011;17114;52.314;8.910;2023-12-07T04:11:25;45.05;;;24.15;;
30307;SDS011;17114;52.314;8.910;2023-12-07T04:13:52;54.08;;;26.52;;
30307;SDS011;17114;52.314;8.910;2023-12-07T04:16:20;50.70;;;25.50;;
30307;SDS011;17114;52.314;8.910;2023-12-07T04:18:47;58.00;;;25.70;;
30307;SDS011;17114;52.314;8.910;2023-12-07T04:21:15;45.83;;;24.95;;
30307;SDS011;17114;52.314;8.910;2023-12-07T04:23:42;46.53;;;24.60;;
30307;SDS011;17114;52.314;8.910;2023-12-07T04:26:09;44.33;;;24.52;;
30307;SDS011;17114;52.314;8.910;2023-12-07T04:28:36;50.03;;;25.30;;
30307;SDS011;17114;52.314;8.910;2023-12-07T04:31:03;43.42;;;24.40;;
30307;SDS011;17114;52.314;8.910;2023-12-07T04:33:30;48.85;;;25.02;;
30307;SDS011;17114;52.314;8.910;2023-12-07T04:35:57;47.60;;;24.77;;
30307;SDS011;17114;52.314;8.910;2023-12-07T04:38:25;49.35;;;24.95;;
30307;SDS011;17114;52.314;8.910;2023-12-07T04:40:52;45.97;;;24.58;;
30307;SDS011;17114;52.314;8.910;2023-12-07T04:43:19;48.97;;;25.30;;
30307;SDS011;17114;52.314;8.910;2023-12-07T04:45:46;47.08;;;24.55;;
30307;SDS011;17114;52.314;8.910;2023-12-07T04:48:13;53.67;;;25.27;;
30307;SDS011;17114;52.314;8.910;2023-12-07T04:50:41;50.60;;;25.67;;
30307;SDS011;17114;52.314;8.910;2023-12-07T04:53:08;44.40;;;24.63;;
30307;SDS011;17114;52.314;8.910;2023-12-07T04:55:36;46.75;;;24.50;;
30307;SDS011;17114;52.314;8.910;2023-12-07T04:58:03;53.08;;;25.23;;
30307;SDS011;17114;52.314;8.910;2023-12-07T05:00:30;49.28;;;25.30;;
30307;SDS011;17114;52.314;8.910;2023-12-07T05:02:57;45.50;;;24.45;;
30307;SDS011;17114;52.314;8.910;2023-12-07T05:05:24;49.33;;;25.70;;
30307;SDS011;17114;52.314;8.910;2023-12-07T05:07:51;46.25;;;24.40;;
30307;SDS011;17114;52.314;8.910;2023-12-07T05:10:18;47.03;;;24.15;;
30307;SDS011;17114;52.314;8.910;2023-12-07T05:12:45;47.33;;;24.35;;
30307;SDS011;17114;52.314;8.910;2023-12-07T05:15:12;43.83;;;24.33;;
30307;SDS011;17114;52.314;8.910;2023-12-07T05:17:39;54.60;;;25.50;;
30307;SDS011;17114;52.314;8.910;2023-12-07T05:20:06;45.38;;;24.30;;
30307;SDS011;17114;52.314;8.910;2023-12-07T05:22:34;41.92;;;22.70;;
30307;SDS011;17114;52.314;8.910;2023-12-07T05:25:01;45.63;;;22.80;;
30307;SDS011;17114;52.314;8.910;2023-12-07T05:27:29;44.92;;;23.35;;
30307;SDS011;17114;52.314;8.910;2023-12-07T05:29:56;43.40;;;24.17;;
30307;SDS011;17114;52.314;8.910;2023-12-07T05:32:23;46.83;;;23.98;;
30307;SDS011;17114;52.314;8.910;2023-12-07T05:34:51;46.72;;;24.33;;
30307;SDS011;17114;52.314;8.910;2023-12-07T05:37:18;49.65;;;24.42;;
30307;SDS011;17114;52.314;8.910;2023-12-07T05:39:44;46.28;;;23.30;;
30307;SDS011;17114;52.314;8.910;2023-12-07T05:42:12;43.78;;;23.77;;
30307;SDS011;17114;52.314;8.910;2023-12-07T05:44:38;48.42;;;24.45;;
30307;SDS011;17114;52.314;8.910;2023-12-07T05:47:06;52.92;;;24.83;;
30307;SDS011;17114;52.314;8.910;2023-12-07T05:49:34;53.55;;;25.35;;
30307;SDS011;17114;52.314;8.910;2023-12-07T05:52:01;51.58;;;25.35;;
30307;SDS011;17114;52.314;8.910;2023-12-07T05:54:29;53.97;;;25.35;;
30307;SDS011;17114;52.314;8.910;2023-12-07T05:56:56;50.90;;;23.77;;
30307;SDS011;17114;52.314;8.910;2023-12-07T05:59:23;51.95;;;25.70;;
30307;SDS011;17114;52.314;8.910;2023-12-07T06:01:53;49.17;;;24.65;;
30307;SDS011;17114;52.314;8.910;2023-12-07T06:04:20;53.53;;;24.38;;
30307;SDS011;17114;52.314;8.910;2023-12-07T06:06:47;48.78;;;24.13;;
30307;SDS011;17114;52.314;8.910;2023-12-07T06:09:14;48.78;;;24.08;;
30307;SDS011;17114;52.314;8.910;2023-12-07T06:11:41;51.67;;;25.40;;
30307;SDS011;17114;52.314;8.910;2023-12-07T06:14:08;54.22;;;24.17;;
30307;SDS011;17114;52.314;8.910;2023-12-07T06:16:34;54.42;;;25.10;;
30307;SDS011;17114;52.314;8.910;2023-12-07T06:19:01;46.42;;;24.40;;
30307;SDS011;17114;52.314;8.910;2023-12-07T06:21:29;43.38;;;22.85;;
30307;SDS011;17114;52.314;8.910;2023-12-07T06:23:56;48.85;;;24.10;;
30307;SDS011;17114;52.314;8.910;2023-12-07T06:26:25;48.38;;;24.90;;
30307;SDS011;17114;52.314;8.910;2023-12-07T06:28:52;45.95;;;23.70;;
30307;SDS011;17114;52.314;8.910;2023-12-07T06:31:19;48.85;;;24.63;;
30307;SDS011;17114;52.314;8.910;2023-12-07T06:33:48;43.70;;;23.17;;
30307;SDS011;17114;52.314;8.910;2023-12-07T06:36:19;45.88;;;22.65;;
30307;SDS011;17114;52.314;8.910;2023-12-07T06:38:50;45.22;;;24.05;;
30307;SDS011;17114;52.314;8.910;2023-12-07T06:41:17;43.22;;;22.52;;
30307;SDS011;17114;52.314;8.910;2023-12-07T06:43:44;43.03;;;23.30;;
30307;SDS011;17114;52.314;8.910;2023-12-07T06:46:14;50.35;;;25.20;;
30307;SDS011;17114;52.314;8.910;2023-12-07T06:48:43;51.55;;;23.35;;
30307;SDS011;17114;52.314;8.910;2023-12-07T06:51:10;43.83;;;23.98;;
30307;SDS011;17114;52.314;8.910;2023-12-07T06:53:38;44.88;;;23.70;;
30307;SDS011;17114;52.314;8.910;2023-12-07T06:56:07;51.88;;;25.73;;
30307;SDS011;17114;52.314;8.910;2023-12-07T06:58:34;49.00;;;25.65;;
30307;SDS011;17114;52.314;8.910;2023-12-07T07:01:01;51.63;;;25.27;;
30307;SDS011;17114;52.314;8.910;2023-12-07T07:03:29;53.80;;;26.10;;
30307;SDS011;17114;52.314;8.910;2023-12-07T07:05:56;48.40;;;26.48;;
30307;SDS011;17114;52.314;8.910;2023-12-07T07:08:23;54.30;;;25.75;;
30307;SDS011;17114;52.314;8.910;2023-12-07T07:10:50;55.15;;;27.40;;
30307;SDS011;17114;52.314;8.910;2023-12-07T07:13:17;54.03;;;27.05;;
30307;SDS011;17114;52.314;8.910;2023-12-07T07:15:45;48.83;;;26.83;;
30307;SDS011;17114;52.314;8.910;2023-12-07T07:18:14;49.67;;;26.05;;
30307;SDS011;17114;52.314;8.910;2023-12-07T07:20:41;57.20;;;27.30;;
30307;SDS011;17114;52.314;8.910;2023-12-07T07:23:08;50.85;;;27.02;;
30307;SDS011;17114;52.314;8.910;2023-12-07T07:25:35;50.20;;;24.88;;
30307;SDS011;17114;52.314;8.910;2023-12-07T07:28:03;53.83;;;26.73;;
30307;SDS011;17114;52.314;8.910;2023-12-07T07:30:30;55.75;;;27.15;;
30307;SDS011;17114;52.314;8.910;2023-12-07T07:32:57;54.72;;;27.17;;
30307;SDS011;17114;52.314;8.910;2023-12-07T07:35:24;52.00;;;26.75;;
30307;SDS011;17114;52.314;8.910;2023-12-07T07:37:53;52.45;;;27.15;;
30307;SDS011;17114;52.314;8.910;2023-12-07T07:40:20;52.28;;;26.90;;
30307;SDS011;17114;52.314;8.910;2023-12-07T07:42:47;52.53;;;27.73;;
30307;SDS011;17114;52.314;8.910;2023-12-07T07:45:14;54.30;;;28.65;;
30307;SDS011;17114;52.314;8.910;2023-12-07T07:47:42;51.38;;;28.15;;
30307;SDS011;17114;52.314;8.910;2023-12-07T07:50:10;53.47;;;27.50;;
30307;SDS011;17114;52.314;8.910;2023-12-07T07:52:37;52.00;;;26.45;;
30307;SDS011;17114;52.314;8.910;2023-12-07T07:55:04;57.22;;;27.65;;
30307;SDS011;17114;52.314;8.910;2023-12-07T07:57:31;58.28;;;29.63;;
30307;SDS011;17114;52.314;8.910;2023-12-07T07:59:58;57.80;;;29.75;;
30307;SDS011;17114;52.314;8.910;2023-12-07T08:02:25;55.45;;;29.20;;
30307;SDS011;17114;52.314;8.910;2023-12-07T08:04:53;57.97;;;29.83;;
30307;SDS011;17114;52.314;8.910;2023-12-07T08:07:20;56.88;;;30.95;;
30307;SDS011;17114;52.314;8.910;2023-12-07T08:09:47;60.88;;;29.95;;
30307;SDS011;17114;52.314;8.910;2023-12-07T08:12:14;58.25;;;30.48;;
30307;SDS011;17114;52.314;8.910;2023-12-07T08:14:41;65.43;;;32.47;;
30307;SDS011;17114;52.314;8.910;2023-12-07T08:17:10;63.17;;;32.03;;
30307;SDS011;17114;52.314;8.910;2023-12-07T08:19:38;64.30;;;32.47;;
30307;SDS011;17114;52.314;8.910;2023-12-07T08:22:05;65.97;;;31.65;;
30307;SDS011;17114;52.314;8.910;2023-12-07T08:24:32;64.55;;;34.55;;
30307;SDS011;17114;52.314;8.910;2023-12-07T08:26:59;62.28;;;31.67;;
30307;SDS011;17114;52.314;8.910;2023-12-07T08:29:26;63.10;;;33.17;;
30307;SDS011;17114;52.314;8.910;2023-12-07T08:31:53;65.85;;;32.70;;
30307;SDS011;17114;52.314;8.910;2023-12-07T08:34:20;66.07;;;33.20;;
30307;SDS011;17114;52.314;8.910;2023-12-07T08:36:49;69.68;;;34.28;;
30307;SDS011;17114;52.314;8.910;2023-12-07T08:39:16;63.63;;;32.70;;
30307;SDS011;17114;52.314;8.910;2023-12-07T08:41:43;67.60;;;34.05;;
30307;SDS011;17114;52.314;8.910;2023-12-07T08:44:10;71.95;;;34.13;;
30307;SDS011;17114;52.314;8.910;2023-12-07T08:46:37;74.47;;;37.03;;
30307;SDS011;17114;52.314;8.910;2023-12-07T08:49:04;68.00;;;34.05;;
30307;SDS011;17114;52.314;8.910;2023-12-07T08:51:33;67.15;;;33.47;;
30307;SDS011;17114;52.314;8.910;2023-12-07T08:54:00;71.53;;;34.83;;
30307;SDS011;17114;52.314;8.910;2023-12-07T08:56:27;69.10;;;34.53;;
30307;SDS011;17114;52.314;8.910;2023-12-07T08:58:54;75.10;;;37.20;;
30307;SDS011;17114;52.314;8.910;2023-12-07T09:01:22;67.13;;;33.90;;
30307;SDS011;17114;52.314;8.910;2023-12-07T09:03:58;71.95;;;35.92;;
30307;SDS011;17114;52.314;8.910;2023-12-07T09:06:25;72.32;;;35.10;;
30307;SDS011;17114;52.314;8.910;2023-12-07T09:08:53;67.32;;;33.08;;
30307;SDS011;17114;52.314;8.910;2023-12-07T09:11:21;72.20;;;35.92;;
30307;SDS011;17114;52.314;8.910;2023-12-07T09:13:49;70.88;;;35.85;;
30307;SDS011;17114;52.314;8.910;2023-12-07T09:16:16;69.32;;;36.20;;
30307;SDS011;17114;52.314;8.910;2023-12-07T09:18:43;72.15;;;36.10;;
30307;SDS011;17114;52.314;8.910;2023-12-07T09:21:12;71.80;;;36.15;;
30307;SDS011;17114;52.314;8.910;2023-12-07T09:23:40;66.82;;;34.45;;
30307;SDS011;17114;52.314;8.910;2023-12-07T09:26:07;72.05;;;35.75;;
30307;SDS011;17114;52.314;8.910;2023-12-07T09:28:34;78.85;;;35.90;;
30307;SDS011;17114;52.314;8.910;2023-12-07T09:31:02;73.32;;;35.80;;
30307;SDS011;17114;52.314;8.910;2023-12-07T09:33:29;73.15;;;36.03;;
30307;SDS011;17114;52.314;8.910;2023-12-07T09:35:56;69.75;;;35.53;;
30307;SDS011;17114;52.314;8.910;2023-12-07T09:38:23;71.88;;;34.83;;
30307;SDS011;17114;52.314;8.910;2023-12-07T09:40:53;74.70;;;36.22;;
30307;SDS011;17114;52.314;8.910;2023-12-07T09:43:21;77.50;;;35.97;;
30307;SDS011;17114;52.314;8.910;2023-12-07T09:45:49;73.43;;;35.28;;
30307;SDS011;17114;52.314;8.910;2023-12-07T09:48:21;79.65;;;35.30;;
30307;SDS011;17114;52.314;8.910;2023-12-07T09:50:49;74.70;;;35.63;;
30307;SDS011;17114;52.314;8.910;2023-12-07T09:53:17;85.53;;;37.33;;
30307;SDS011;17114;52.314;8.910;2023-12-07T09:55:46;80.05;;;36.45;;
30307;SDS011;17114;52.314;8.910;2023-12-07T09:58:14;74.63;;;35.95;;
30307;SDS011;17114;52.314;8.910;2023-12-07T10:00:42;76.25;;;35.88;;
30307;SDS011;17114;52.314;8.910;2023-12-07T10:03:09;80.05;;;36.25;;
30307;SDS011;17114;52.314;8.910;2023-12-07T10:05:56;84.78;;;36.70;;
30307;SDS011;17114;52.314;8.910;2023-12-07T10:08:28;82.90;;;36.92;;
30307;SDS011;17114;52.314;8.910;2023-12-07T10:11:09;81.78;;;38.08;;
30307;SDS011;17114;52.314;8.910;2023-12-07T10:13:38;81.47;;;36.08;;
30307;SDS011;17114;52.314;8.910;2023-12-07T10:18:42;81.13;;;36.30;;
30307;SDS011;17114;52.314;8.910;2023-12-07T10:21:11;80.85;;;35.05;;
30307;SDS011;17114;52.314;8.910;2023-12-07T10:23:39;86.88;;;37.03;;
30307;SDS011;17114;52.314;8.910;2023-12-07T10:26:10;83.70;;;36.33;;
30307;SDS011;17114;52.314;8.910;2023-12-07T10:28:37;86.75;;;36.17;;
30307;SDS011;17114;52.314;8.910;2023-12-07T10:31:08;79.63;;;35.53;;
30307;SDS011;17114;52.314;8.910;2023-12-07T10:33:36;77.63;;;36.40;;
30307;SDS011;17114;52.314;8.910;2023-12-07T10:36:03;84.82;;;36.15;;
30307;SDS011;17114;52.314;8.910;2023-12-07T10:38:31;85.15;;;36.65;;
30307;SDS011;17114;52.314;8.910;2023-12-07T10:41:05;83.50;;;35.50;;
30307;SDS011;17114;52.314;8.910;2023-12-07T10:43:42;83.43;;;35.42;;
30307;SDS011;17114;52.314;8.910;2023-12-07T10:46:12;76.63;;;34.72;;
30307;SDS011;17114;52.314;8.910;2023-12-07T10:48:44;84.15;;;36.15;;
30307;SDS011;17114;52.314;8.910;2023-12-07T10:51:16;77.15;;;33.75;;
30307;SDS011;17114;52.314;8.910;2023-12-07T10:53:49;82.22;;;36.92;;
30307;SDS011;17114;52.314;8.910;2023-12-07T10:56:21;80.45;;;35.47;;
30307;SDS011;17114;52.314;8.910;2023-12-07T10:58:55;78.57;;;34.42;;
30307;SDS011;17114;52.314;8.910;2023-12-07T11:01:24;83.47;;;36.20;;
30307;SDS011;17114;52.314;8.910;2023-12-07T11:03:52;80.72;;;34.13;;
30307;SDS011;17114;52.314;8.910;2023-12-07T11:06:20;75.55;;;33.35;;
30307;SDS011;17114;52.314;8.910;2023-12-07T11:08:49;71.60;;;32.08;;
30307;SDS011;17114;52.314;8.910;2023-12-07T11:13:57;74.78;;;32.47;;
30307;SDS011;17114;52.314;8.910;2023-12-07T11:16:30;75.00;;;32.67;;
30307;SDS011;17114;52.314;8.910;2023-12-07T11:19:03;72.47;;;31.15;;
30307;SDS011;17114;52.314;8.910;2023-12-07T11:21:37;79.97;;;33.00;;
30307;SDS011;17114;52.314;8.910;2023-12-07T11:24:04;73.50;;;31.27;;
30307;SDS011;17114;52.314;8.910;2023-12-07T11:26:31;69.03;;;30.20;;
30307;SDS011;17114;52.314;8.910;2023-12-07T11:28:58;67.57;;;30.92;;
30307;SDS011;17114;52.314;8.910;2023-12-07T11:31:26;71.63;;;31.70;;
30307;SDS011;17114;52.314;8.910;2023-12-07T11:33:53;66.68;;;29.75;;
30307;SDS011;17114;52.314;8.910;2023-12-07T11:36:21;70.45;;;29.95;;
30307;SDS011;17114;52.314;8.910;2023-12-07T11:41:45;68.60;;;30.38;;
30307;SDS011;17114;52.314;8.910;2023-12-07T11:44:17;62.10;;;28.42;;
30307;SDS011;17114;52.314;8.910;2023-12-07T11:46:44;65.47;;;28.58;;
30307;SDS011;17114;52.314;8.910;2023-12-07T11:49:11;64.57;;;28.88;;
30307;SDS011;17114;52.314;8.910;2023-12-07T11:51:54;65.43;;;29.50;;
30307;SDS011;17114;52.314;8.910;2023-12-07T11:54:22;55.35;;;26.10;;
30307;SDS011;17114;52.314;8.910;2023-12-07T11:56:53;57.88;;;28.67;;
30307;SDS011;17114;52.314;8.910;2023-12-07T11:59:23;57.83;;;27.33;;
30307;SDS011;17114;52.314;8.910;2023-12-07T12:01:59;60.88;;;28.80;;
30307;SDS011;17114;52.314;8.910;2023-12-07T12:04:29;60.67;;;26.77;;
30307;SDS011;17114;52.314;8.910;2023-12-07T12:06:56;60.38;;;28.50;;
30307;SDS011;17114;52.314;8.910;2023-12-07T12:09:24;62.90;;;28.08;;
30307;SDS011;17114;52.314;8.910;2023-12-07T12:11:58;47.30;;;22.10;;
30307;SDS011;17114;52.314;8.910;2023-12-07T12:14:27;66.40;;;28.92;;
30307;SDS011;17114;52.314;8.910;2023-12-07T12:16:57;58.83;;;28.45;;
30307;SDS011;17114;52.314;8.910;2023-12-07T12:19:24;61.70;;;26.88;;
30307;SDS011;17114;52.314;8.910;2023-12-07T12:22:02;63.25;;;27.30;;
30307;SDS011;17114;52.314;8.910;2023-12-07T12:24:33;59.22;;;26.58;;
30307;SDS011;17114;52.314;8.910;2023-12-07T12:27:01;55.58;;;25.70;;
30307;SDS011;17114;52.314;8.910;2023-12-07T12:29:29;53.83;;;25.83;;
30307;SDS011;17114;52.314;8.910;2023-12-07T12:32:01;55.25;;;27.77;;
30307;SDS011;17114;52.314;8.910;2023-12-07T12:34:29;60.28;;;27.63;;
30307;SDS011;17114;52.314;8.910;2023-12-07T12:36:58;52.75;;;25.75;;
30307;SDS011;17114;52.314;8.910;2023-12-07T12:39:29;51.22;;;24.92;;
30307;SDS011;17114;52.314;8.910;2023-12-07T12:41:59;48.83;;;24.75;;
30307;SDS011;17114;52.314;8.910;2023-12-07T12:44:27;54.22;;;24.42;;
30307;SDS011;17114;52.314;8.910;2023-12-07T12:47:06;50.47;;;24.58;;
30307;SDS011;17114;52.314;8.910;2023-12-07T12:49:38;47.17;;;22.77;;
30307;SDS011;17114;52.314;8.910;2023-12-07T12:52:10;49.92;;;24.65;;
30307;SDS011;17114;52.314;8.910;2023-12-07T12:54:38;48.35;;;24.17;;
30307;SDS011;17114;52.314;8.910;2023-12-07T12:57:08;51.03;;;23.48;;
30307;SDS011;17114;52.314;8.910;2023-12-07T12:59:35;51.97;;;24.70;;
30307;SDS011;17114;52.314;8.910;2023-12-07T13:02:02;48.45;;;24.38;;
30307;SDS011;17114;52.314;8.910;2023-12-07T13:04:32;45.40;;;23.23;;
30307;SDS011;17114;52.314;8.910;2023-12-07T13:07:03;48.55;;;24.42;;
30307;SDS011;17114;52.314;8.910;2023-12-07T13:09:30;49.97;;;24.50;;
30307;SDS011;17114;52.314;8.910;2023-12-07T13:11:58;49.15;;;24.77;;
30307;SDS011;17114;52.314;8.910;2023-12-07T13:14:29;45.95;;;23.20;;
30307;SDS011;17114;52.314;8.910;2023-12-07T13:16:57;51.60;;;23.85;;
30307;SDS011;17114;52.314;8.910;2023-12-07T13:19:24;48.67;;;24.27;;
30307;SDS011;17114;52.314;8.910;2023-12-07T13:21:51;49.20;;;24.33;;
30307;SDS011;17114;52.314;8.910;2023-12-07T13:24:18;46.45;;;23.00;;
30307;SDS011;17114;52.314;8.910;2023-12-07T13:26:45;50.30;;;24.27;;
30307;SDS011;17114;52.314;8.910;2023-12-07T13:29:14;46.40;;;23.58;;
30307;SDS011;17114;52.314;8.910;2023-12-07T13:31:54;43.63;;;24.08;;
30307;SDS011;17114;52.314;8.910;2023-12-07T13:34:20;49.20;;;23.58;;
30307;SDS011;17114;52.314;8.910;2023-12-07T13:36:49;45.08;;;22.15;;
30307;SDS011;17114;52.314;8.910;2023-12-07T13:39:16;45.65;;;23.85;;
30307;SDS011;17114;52.314;8.910;2023-12-07T13:41:56;44.08;;;23.45;;
30307;SDS011;17114;52.314;8.910;2023-12-07T13:44:24;46.53;;;23.05;;
30307;SDS011;17114;52.314;8.910;2023-12-07T13:46:54;48.85;;;23.92;;
30307;SDS011;17114;52.314;8.910;2023-12-07T13:49:23;49.55;;;22.92;;
30307;SDS011;17114;52.314;8.910;2023-12-07T13:51:59;45.33;;;22.75;;
30307;SDS011;17114;52.314;8.910;2023-12-07T13:54:38;45.85;;;23.20;;
30307;SDS011;17114;52.314;8.910;2023-12-07T13:59:56;46.05;;;22.63;;
30307;SDS011;17114;52.314;8.910;2023-12-07T14:02:23;50.60;;;25.20;;
30307;SDS011;17114;52.314;8.910;2023-12-07T14:04:50;46.83;;;23.95;;
30307;SDS011;17114;52.314;8.910;2023-12-07T14:07:20;52.22;;;24.27;;
30307;SDS011;17114;52.314;8.910;2023-12-07T14:09:51;49.85;;;24.17;;
30307;SDS011;17114;52.314;8.910;2023-12-07T14:12:24;52.83;;;24.83;;
30307;SDS011;17114;52.314;8.910;2023-12-07T14:14:55;49.20;;;26.52;;
30307;SDS011;17114;52.314;8.910;2023-12-07T14:17:22;50.85;;;24.88;;
30307;SDS011;17114;52.314;8.910;2023-12-07T14:20:03;47.78;;;24.88;;
30307;SDS011;17114;52.314;8.910;2023-12-07T14:22:53;44.47;;;23.23;;
30307;SDS011;17114;52.314;8.910;2023-12-07T14:25:23;50.28;;;24.25;;
30307;SDS011;17114;52.314;8.910;2023-12-07T14:27:50;45.50;;;22.92;;
30307;SDS011;17114;52.314;8.910;2023-12-07T14:30:17;48.85;;;23.70;;
30307;SDS011;17114;52.314;8.910;2023-12-07T14:32:44;46.45;;;23.05;;
30307;SDS011;17114;52.314;8.910;2023-12-07T14:35:18;43.35;;;23.02;;
30307;SDS011;17114;52.314;8.910;2023-12-07T14:37:46;42.03;;;23.73;;
30307;SDS011;17114;52.314;8.910;2023-12-07T14:40:14;50.35;;;23.88;;
30307;SDS011;17114;52.314;8.910;2023-12-07T14:42:44;51.13;;;24.25;;
30307;SDS011;17114;52.314;8.910;2023-12-07T14:45:12;50.83;;;24.63;;